sensor_id;sensor_type;location;lat;lon;timestamp;P1;durP1;ratioP1;P2;durP2;ratioP2
75626;SDS011;67372;49.404;11.034;2023-10-13T00:01:47;15.75;;;8.15;;
75626;SDS011;67372;49.404;11.034;2023-10-13T00:04:16;15.82;;;8.65;;
75626;SDS011;67372;49.404;11.034;2023-10-13T00:06:42;14.00;;;7.30;;
75626;SDS011;67372;49.404;11.034;2023-10-13T00:09:09;15.27;;;7.47;;
75626;SDS011;67372;49.404;11.034;2023-10-13T00:11:35;13.45;;;7.75;;
75626;SDS011;67372;49.404;11.034;2023-10-13T00:14:01;15.20;;;7.82;;
75626;SDS011;67372;49.404;11.034;2023-10-13T00:16:28;13.27;;;7.50;;
75626;SDS011;67372;49.404;11.034;2023-10-13T00:18:54;15.35;;;8.07;;
75626;SDS011;67372;49.404;11.034;2023-10-13T00:21:21;16.95;;;8.52;;
75626;SDS011;67372;49.404;11.034;2023-10-13T00:23:48;14.50;;;7.50;;
75626;SDS011;67372;49.404;11.034;2023-10-13T00:26:14;14.15;;;7.28;;
75626;SDS011;67372;49.404;11.034;2023-10-13T00:28:40;13.35;;;7.63;;
75626;SDS011;67372;49.404;11.034;2023-10-13T00:31:07;13.57;;;8.05;;
75626;SDS011;67372;49.404;11.034;2023-10-13T00:33:33;17.70;;;8.05;;
75626;SDS011;67372;49.404;11.034;2023-10-13T00:35:59;15.70;;;8.25;;
75626;SDS011;67372;49.404;11.034;2023-10-13T00:38:26;14.07;;;7.93;;
75626;SDS011;67372;49.404;11.034;2023-10-13T00:40:52;15.95;;;8.48;;
75626;SDS011;67372;49.404;11.034;2023-10-13T00:43:19;15.98;;;9.25;;
75626;SDS011;67372;49.404;11.034;2023-10-13T00:45:54;16.58;;;8.00;;
75626;SDS011;67372;49.404;11.034;2023-10-13T00:48:22;14.95;;;8.68;;
75626;SDS011;67372;49.404;11.034;2023-10-13T00:50:53;16.40;;;8.18;;
75626;SDS011;67372;49.404;11.034;2023-10-13T00:53:20;15.82;;;8.15;;
75626;SDS011;67372;49.404;11.034;2023-10-13T00:55:46;19.02;;;8.18;;
75626;SDS011;67372;49.404;11.034;2023-10-13T00:58:13;15.25;;;9.32;;
75626;SDS011;67372;49.404;11.034;2023-10-13T01:00:42;15.85;;;8.35;;
75626;SDS011;67372;49.404;11.034;2023-10-13T01:03:08;15.60;;;8.30;;
75626;SDS011;67372;49.404;11.034;2023-10-13T01:05:35;18.70;;;8.95;;
75626;SDS011;67372;49.404;11.034;2023-10-13T01:08:02;13.02;;;7.60;;
75626;SDS011;67372;49.404;11.034;2023-10-13T01:10:28;16.58;;;9.23;;
75626;SDS011;67372;49.404;11.034;2023-10-13T01:12:55;14.75;;;8.68;;
75626;SDS011;67372;49.404;11.034;2023-10-13T01:15:21;13.23;;;8.18;;
75626;SDS011;67372;49.404;11.034;2023-10-13T01:17:48;15.30;;;8.10;;
75626;SDS011;67372;49.404;11.034;2023-10-13T01:20:14;16.42;;;9.10;;
75626;SDS011;67372;49.404;11.034;2023-10-13T01:22:41;12.95;;;8.00;;
75626;SDS011;67372;49.404;11.034;2023-10-13T01:25:08;15.85;;;8.23;;
75626;SDS011;67372;49.404;11.034;2023-10-13T01:27:38;16.65;;;9.02;;
75626;SDS011;67372;49.404;11.034;2023-10-13T01:30:05;16.77;;;8.32;;
75626;SDS011;67372;49.404;11.034;2023-10-13T01:32:32;17.73;;;8.88;;
75626;SDS011;67372;49.404;11.034;2023-10-13T01:34:58;15.52;;;8.60;;
75626;SDS011;67372;49.404;11.034;2023-10-13T01:37:25;16.08;;;9.27;;
75626;SDS011;67372;49.404;11.034;2023-10-13T01:39:51;17.27;;;8.65;;
75626;SDS011;67372;49.404;11.034;2023-10-13T01:42:17;14.05;;;8.45;;
75626;SDS011;67372;49.404;11.034;2023-10-13T01:44:44;18.25;;;8.38;;
75626;SDS011;67372;49.404;11.034;2023-10-13T01:47:10;14.60;;;8.07;;
75626;SDS011;67372;49.404;11.034;2023-10-13T01:49:37;16.17;;;8.50;;
75626;SDS011;67372;49.404;11.034;2023-10-13T01:52:03;16.17;;;8.73;;
75626;SDS011;67372;49.404;11.034;2023-10-13T01:54:30;14.88;;;8.63;;
75626;SDS011;67372;49.404;11.034;2023-10-13T01:56:56;15.48;;;8.52;;
75626;SDS011;67372;49.404;11.034;2023-10-13T01:59:22;16.25;;;8.70;;
75626;SDS011;67372;49.404;11.034;2023-10-13T02:01:49;15.15;;;8.50;;
75626;SDS011;67372;49.404;11.034;2023-10-13T02:04:15;16.23;;;8.48;;
75626;SDS011;67372;49.404;11.034;2023-10-13T02:06:42;16.75;;;8.40;;
75626;SDS011;67372;49.404;11.034;2023-10-13T02:09:08;16.48;;;8.50;;
75626;SDS011;67372;49.404;11.034;2023-10-13T02:11:35;16.65;;;8.90;;
75626;SDS011;67372;49.404;11.034;2023-10-13T02:14:01;15.88;;;8.75;;
75626;SDS011;67372;49.404;11.034;2023-10-13T02:16:28;14.55;;;7.57;;
75626;SDS011;67372;49.404;11.034;2023-10-13T02:18:54;15.43;;;8.13;;
75626;SDS011;67372;49.404;11.034;2023-10-13T02:21:20;15.35;;;8.43;;
75626;SDS011;67372;49.404;11.034;2023-10-13T02:23:47;17.50;;;8.48;;
75626;SDS011;67372;49.404;11.034;2023-10-13T02:26:14;14.95;;;7.82;;
75626;SDS011;67372;49.404;11.034;2023-10-13T02:28:40;18.73;;;8.52;;
75626;SDS011;67372;49.404;11.034;2023-10-13T02:31:07;15.43;;;8.85;;
75626;SDS011;67372;49.404;11.034;2023-10-13T02:33:33;14.35;;;8.68;;
75626;SDS011;67372;49.404;11.034;2023-10-13T02:36:00;16.20;;;8.20;;
75626;SDS011;67372;49.404;11.034;2023-10-13T02:38:28;14.52;;;8.20;;
75626;SDS011;67372;49.404;11.034;2023-10-13T02:40:55;16.33;;;8.32;;
75626;SDS011;67372;49.404;11.034;2023-10-13T02:43:21;14.93;;;8.70;;
75626;SDS011;67372;49.404;11.034;2023-10-13T02:45:52;14.40;;;7.88;;
75626;SDS011;67372;49.404;11.034;2023-10-13T02:48:19;14.38;;;7.85;;
75626;SDS011;67372;49.404;11.034;2023-10-13T02:50:45;15.10;;;8.30;;
75626;SDS011;67372;49.404;11.034;2023-10-13T02:53:21;14.80;;;8.23;;
75626;SDS011;67372;49.404;11.034;2023-10-13T02:55:51;17.52;;;8.88;;
75626;SDS011;67372;49.404;11.034;2023-10-13T02:58:18;19.17;;;9.20;;
75626;SDS011;67372;49.404;11.034;2023-10-13T03:00:45;15.50;;;8.13;;
75626;SDS011;67372;49.404;11.034;2023-10-13T03:03:11;17.52;;;8.98;;
75626;SDS011;67372;49.404;11.034;2023-10-13T03:05:37;15.70;;;8.80;;
75626;SDS011;67372;49.404;11.034;2023-10-13T03:08:05;16.48;;;8.63;;
75626;SDS011;67372;49.404;11.034;2023-10-13T03:10:32;16.13;;;8.20;;
75626;SDS011;67372;49.404;11.034;2023-10-13T03:12:58;14.48;;;8.57;;
75626;SDS011;67372;49.404;11.034;2023-10-13T03:15:25;14.30;;;8.20;;
75626;SDS011;67372;49.404;11.034;2023-10-13T03:17:51;15.48;;;8.40;;
75626;SDS011;67372;49.404;11.034;2023-10-13T03:20:17;16.58;;;8.85;;
75626;SDS011;67372;49.404;11.034;2023-10-13T03:22:44;15.18;;;7.82;;
75626;SDS011;67372;49.404;11.034;2023-10-13T03:25:11;16.42;;;8.95;;
75626;SDS011;67372;49.404;11.034;2023-10-13T03:27:39;16.02;;;7.68;;
75626;SDS011;67372;49.404;11.034;2023-10-13T03:30:05;14.35;;;7.85;;
75626;SDS011;67372;49.404;11.034;2023-10-13T03:34:59;16.00;;;8.23;;
75626;SDS011;67372;49.404;11.034;2023-10-13T03:37:25;15.90;;;8.02;;
75626;SDS011;67372;49.404;11.034;2023-10-13T03:39:52;16.48;;;8.70;;
75626;SDS011;67372;49.404;11.034;2023-10-13T03:42:18;15.00;;;8.40;;
75626;SDS011;67372;49.404;11.034;2023-10-13T03:44:45;16.77;;;8.52;;
75626;SDS011;67372;49.404;11.034;2023-10-13T03:47:12;25.73;;;9.60;;
75626;SDS011;67372;49.404;11.034;2023-10-13T03:49:38;17.75;;;8.93;;
75626;SDS011;67372;49.404;11.034;2023-10-13T03:52:05;16.42;;;8.23;;
75626;SDS011;67372;49.404;11.034;2023-10-13T03:54:31;18.27;;;9.25;;
75626;SDS011;67372;49.404;11.034;2023-10-13T03:56:58;17.98;;;8.95;;
75626;SDS011;67372;49.404;11.034;2023-10-13T03:59:24;15.88;;;8.43;;
75626;SDS011;67372;49.404;11.034;2023-10-13T04:01:50;14.68;;;8.40;;
75626;SDS011;67372;49.404;11.034;2023-10-13T04:04:17;16.08;;;7.90;;
75626;SDS011;67372;49.404;11.034;2023-10-13T04:06:44;15.57;;;8.30;;
75626;SDS011;67372;49.404;11.034;2023-10-13T04:09:17;14.00;;;8.15;;
75626;SDS011;67372;49.404;11.034;2023-10-13T04:11:44;16.13;;;8.30;;
75626;SDS011;67372;49.404;11.034;2023-10-13T04:14:11;18.73;;;8.85;;
75626;SDS011;67372;49.404;11.034;2023-10-13T04:16:37;18.38;;;8.68;;
75626;SDS011;67372;49.404;11.034;2023-10-13T04:19:04;16.65;;;8.85;;
75626;SDS011;67372;49.404;11.034;2023-10-13T04:21:31;18.70;;;8.63;;
75626;SDS011;67372;49.404;11.034;2023-10-13T04:23:57;15.43;;;8.60;;
75626;SDS011;67372;49.404;11.034;2023-10-13T04:26:24;15.65;;;7.80;;
75626;SDS011;67372;49.404;11.034;2023-10-13T04:28:50;19.70;;;8.73;;
75626;SDS011;67372;49.404;11.034;2023-10-13T04:31:16;17.52;;;8.30;;
75626;SDS011;67372;49.404;11.034;2023-10-13T04:33:43;14.88;;;8.25;;
75626;SDS011;67372;49.404;11.034;2023-10-13T04:36:13;19.65;;;9.98;;
75626;SDS011;67372;49.404;11.034;2023-10-13T04:38:41;13.80;;;7.53;;
75626;SDS011;67372;49.404;11.034;2023-10-13T04:41:09;15.52;;;8.20;;
75626;SDS011;67372;49.404;11.034;2023-10-13T04:43:35;17.90;;;8.45;;
75626;SDS011;67372;49.404;11.034;2023-10-13T04:46:02;16.30;;;8.00;;
75626;SDS011;67372;49.404;11.034;2023-10-13T04:48:28;16.58;;;8.80;;
75626;SDS011;67372;49.404;11.034;2023-10-13T04:50:59;15.10;;;8.27;;
75626;SDS011;67372;49.404;11.034;2023-10-13T04:53:26;14.23;;;7.35;;
75626;SDS011;67372;49.404;11.034;2023-10-13T04:55:52;16.60;;;8.23;;
75626;SDS011;67372;49.404;11.034;2023-10-13T04:58:18;14.25;;;7.63;;
75626;SDS011;67372;49.404;11.034;2023-10-13T05:00:45;17.83;;;8.75;;
75626;SDS011;67372;49.404;11.034;2023-10-13T05:03:11;17.30;;;8.55;;
75626;SDS011;67372;49.404;11.034;2023-10-13T05:05:38;15.73;;;8.15;;
75626;SDS011;67372;49.404;11.034;2023-10-13T05:08:08;14.40;;;8.10;;
75626;SDS011;67372;49.404;11.034;2023-10-13T05:10:35;17.35;;;8.10;;
75626;SDS011;67372;49.404;11.034;2023-10-13T05:13:03;14.95;;;8.00;;
75626;SDS011;67372;49.404;11.034;2023-10-13T05:15:30;13.27;;;7.50;;
75626;SDS011;67372;49.404;11.034;2023-10-13T05:17:56;11.70;;;7.30;;
75626;SDS011;67372;49.404;11.034;2023-10-13T05:20:22;15.07;;;6.95;;
75626;SDS011;67372;49.404;11.034;2023-10-13T05:22:49;17.02;;;8.13;;
75626;SDS011;67372;49.404;11.034;2023-10-13T05:25:16;16.23;;;7.40;;
75626;SDS011;67372;49.404;11.034;2023-10-13T05:27:42;14.38;;;7.30;;
75626;SDS011;67372;49.404;11.034;2023-10-13T05:30:09;13.77;;;7.28;;
75626;SDS011;67372;49.404;11.034;2023-10-13T05:32:35;14.35;;;7.65;;
75626;SDS011;67372;49.404;11.034;2023-10-13T05:35:02;11.90;;;6.93;;
75626;SDS011;67372;49.404;11.034;2023-10-13T05:37:29;13.35;;;7.32;;
75626;SDS011;67372;49.404;11.034;2023-10-13T05:39:55;12.40;;;7.03;;
75626;SDS011;67372;49.404;11.034;2023-10-13T05:42:22;13.73;;;6.68;;
75626;SDS011;67372;49.404;11.034;2023-10-13T05:44:48;11.25;;;6.40;;
75626;SDS011;67372;49.404;11.034;2023-10-13T05:47:15;14.73;;;6.82;;
75626;SDS011;67372;49.404;11.034;2023-10-13T05:49:42;11.90;;;6.88;;
75626;SDS011;67372;49.404;11.034;2023-10-13T05:52:08;12.25;;;6.80;;
75626;SDS011;67372;49.404;11.034;2023-10-13T05:54:35;12.13;;;6.35;;
75626;SDS011;67372;49.404;11.034;2023-10-13T05:57:01;13.15;;;7.15;;
75626;SDS011;67372;49.404;11.034;2023-10-13T05:59:28;12.02;;;6.95;;
75626;SDS011;67372;49.404;11.034;2023-10-13T06:01:54;14.88;;;6.45;;
75626;SDS011;67372;49.404;11.034;2023-10-13T06:04:22;12.80;;;6.85;;
75626;SDS011;67372;49.404;11.034;2023-10-13T06:06:49;13.65;;;6.50;;
75626;SDS011;67372;49.404;11.034;2023-10-13T06:09:15;10.98;;;6.30;;
75626;SDS011;67372;49.404;11.034;2023-10-13T06:11:41;12.70;;;6.32;;
75626;SDS011;67372;49.404;11.034;2023-10-13T06:14:08;12.55;;;6.55;;
75626;SDS011;67372;49.404;11.034;2023-10-13T06:16:37;13.50;;;6.70;;
75626;SDS011;67372;49.404;11.034;2023-10-13T06:19:03;11.45;;;6.50;;
75626;SDS011;67372;49.404;11.034;2023-10-13T06:21:30;13.57;;;6.60;;
75626;SDS011;67372;49.404;11.034;2023-10-13T06:23:57;13.35;;;6.03;;
75626;SDS011;67372;49.404;11.034;2023-10-13T06:26:23;10.55;;;6.05;;
75626;SDS011;67372;49.404;11.034;2023-10-13T06:28:49;10.60;;;6.07;;
75626;SDS011;67372;49.404;11.034;2023-10-13T06:31:16;15.00;;;6.93;;
75626;SDS011;67372;49.404;11.034;2023-10-13T06:33:42;13.32;;;6.35;;
75626;SDS011;67372;49.404;11.034;2023-10-13T06:36:09;12.55;;;6.10;;
75626;SDS011;67372;49.404;11.034;2023-10-13T06:41:03;11.00;;;5.65;;
75626;SDS011;67372;49.404;11.034;2023-10-13T06:43:36;11.30;;;5.80;;
75626;SDS011;67372;49.404;11.034;2023-10-13T06:46:03;11.15;;;5.95;;
75626;SDS011;67372;49.404;11.034;2023-10-13T06:48:30;10.52;;;5.30;;
75626;SDS011;67372;49.404;11.034;2023-10-13T06:50:56;11.00;;;5.75;;
75626;SDS011;67372;49.404;11.034;2023-10-13T06:53:23;10.77;;;6.32;;
75626;SDS011;67372;49.404;11.034;2023-10-13T06:55:51;10.25;;;5.70;;
75626;SDS011;67372;49.404;11.034;2023-10-13T06:58:17;10.30;;;5.90;;
75626;SDS011;67372;49.404;11.034;2023-10-13T07:00:44;9.18;;;5.72;;
75626;SDS011;67372;49.404;11.034;2023-10-13T07:03:11;9.55;;;5.40;;
75626;SDS011;67372;49.404;11.034;2023-10-13T07:05:37;13.50;;;6.15;;
75626;SDS011;67372;49.404;11.034;2023-10-13T07:08:05;13.07;;;5.88;;
75626;SDS011;67372;49.404;11.034;2023-10-13T07:10:32;12.25;;;5.65;;
75626;SDS011;67372;49.404;11.034;2023-10-13T07:12:59;11.27;;;5.95;;
75626;SDS011;67372;49.404;11.034;2023-10-13T07:15:26;8.18;;;5.22;;
75626;SDS011;67372;49.404;11.034;2023-10-13T07:17:52;10.13;;;5.85;;
75626;SDS011;67372;49.404;11.034;2023-10-13T07:20:19;9.93;;;6.32;;
75626;SDS011;67372;49.404;11.034;2023-10-13T07:22:45;8.85;;;5.00;;
75626;SDS011;67372;49.404;11.034;2023-10-13T07:25:12;10.93;;;5.18;;
75626;SDS011;67372;49.404;11.034;2023-10-13T07:27:38;11.30;;;5.03;;
75626;SDS011;67372;49.404;11.034;2023-10-13T07:30:05;10.07;;;5.65;;
75626;SDS011;67372;49.404;11.034;2023-10-13T07:32:32;11.52;;;5.45;;
75626;SDS011;67372;49.404;11.034;2023-10-13T07:34:58;10.57;;;5.47;;
75626;SDS011;67372;49.404;11.034;2023-10-13T07:37:25;10.23;;;4.70;;
75626;SDS011;67372;49.404;11.034;2023-10-13T07:39:51;8.57;;;4.72;;
75626;SDS011;67372;49.404;11.034;2023-10-13T07:42:18;10.88;;;5.75;;
75626;SDS011;67372;49.404;11.034;2023-10-13T07:44:44;9.98;;;5.10;;
75626;SDS011;67372;49.404;11.034;2023-10-13T07:47:11;9.77;;;5.53;;
75626;SDS011;67372;49.404;11.034;2023-10-13T07:49:38;13.43;;;5.45;;
75626;SDS011;67372;49.404;11.034;2023-10-13T07:52:05;8.13;;;4.72;;
75626;SDS011;67372;49.404;11.034;2023-10-13T07:54:36;10.52;;;5.03;;
75626;SDS011;67372;49.404;11.034;2023-10-13T07:57:02;13.02;;;4.85;;
75626;SDS011;67372;49.404;11.034;2023-10-13T07:59:28;10.10;;;4.82;;
75626;SDS011;67372;49.404;11.034;2023-10-13T08:01:55;9.32;;;4.90;;
75626;SDS011;67372;49.404;11.034;2023-10-13T08:04:21;10.55;;;5.05;;
75626;SDS011;67372;49.404;11.034;2023-10-13T08:06:48;11.43;;;5.07;;
75626;SDS011;67372;49.404;11.034;2023-10-13T08:09:14;10.68;;;4.85;;
75626;SDS011;67372;49.404;11.034;2023-10-13T08:11:41;8.73;;;4.72;;
75626;SDS011;67372;49.404;11.034;2023-10-13T08:14:07;8.80;;;5.13;;
75626;SDS011;67372;49.404;11.034;2023-10-13T08:16:51;8.75;;;5.00;;
75626;SDS011;67372;49.404;11.034;2023-10-13T08:19:18;8.73;;;5.15;;
75626;SDS011;67372;49.404;11.034;2023-10-13T08:21:47;9.98;;;5.13;;
75626;SDS011;67372;49.404;11.034;2023-10-13T08:24:14;7.53;;;4.53;;
75626;SDS011;67372;49.404;11.034;2023-10-13T08:26:41;11.77;;;4.85;;
75626;SDS011;67372;49.404;11.034;2023-10-13T08:29:08;7.63;;;4.55;;
75626;SDS011;67372;49.404;11.034;2023-10-13T08:31:34;7.47;;;4.50;;
75626;SDS011;67372;49.404;11.034;2023-10-13T08:34:01;8.52;;;4.82;;
75626;SDS011;67372;49.404;11.034;2023-10-13T08:36:27;8.38;;;4.35;;
75626;SDS011;67372;49.404;11.034;2023-10-13T08:38:54;7.97;;;3.97;;
75626;SDS011;67372;49.404;11.034;2023-10-13T08:41:24;7.53;;;4.40;;
75626;SDS011;67372;49.404;11.034;2023-10-13T08:43:50;7.43;;;4.10;;
75626;SDS011;67372;49.404;11.034;2023-10-13T08:46:19;8.13;;;4.40;;
75626;SDS011;67372;49.404;11.034;2023-10-13T08:48:46;8.50;;;4.50;;
75626;SDS011;67372;49.404;11.034;2023-10-13T08:51:13;6.68;;;4.07;;
75626;SDS011;67372;49.404;11.034;2023-10-13T08:53:39;9.93;;;4.57;;
75626;SDS011;67372;49.404;11.034;2023-10-13T08:56:09;8.32;;;4.28;;
75626;SDS011;67372;49.404;11.034;2023-10-13T09:01:03;9.93;;;4.60;;
75626;SDS011;67372;49.404;11.034;2023-10-13T09:03:29;9.90;;;5.18;;
75626;SDS011;67372;49.404;11.034;2023-10-13T09:05:56;7.25;;;4.40;;
75626;SDS011;67372;49.404;11.034;2023-10-13T09:08:25;8.50;;;4.28;;
75626;SDS011;67372;49.404;11.034;2023-10-13T09:10:56;8.20;;;3.67;;
75626;SDS011;67372;49.404;11.034;2023-10-13T09:13:33;7.15;;;3.83;;
75626;SDS011;67372;49.404;11.034;2023-10-13T09:16:08;8.30;;;4.03;;
75626;SDS011;67372;49.404;11.034;2023-10-13T09:18:35;8.05;;;3.97;;
75626;SDS011;67372;49.404;11.034;2023-10-13T09:21:01;8.77;;;4.70;;
75626;SDS011;67372;49.404;11.034;2023-10-13T09:23:28;7.70;;;4.63;;
75626;SDS011;67372;49.404;11.034;2023-10-13T09:25:54;8.05;;;4.90;;
75626;SDS011;67372;49.404;11.034;2023-10-13T09:28:31;8.68;;;4.53;;
75626;SDS011;67372;49.404;11.034;2023-10-13T09:30:58;12.15;;;4.93;;
75626;SDS011;67372;49.404;11.034;2023-10-13T09:33:25;10.52;;;4.03;;
75626;SDS011;67372;49.404;11.034;2023-10-13T09:35:53;7.05;;;3.67;;
75626;SDS011;67372;49.404;11.034;2023-10-13T09:38:20;5.80;;;3.75;;
75626;SDS011;67372;49.404;11.034;2023-10-13T09:40:47;7.47;;;3.65;;
75626;SDS011;67372;49.404;11.034;2023-10-13T09:43:13;7.88;;;3.67;;
75626;SDS011;67372;49.404;11.034;2023-10-13T09:45:39;6.35;;;3.50;;
75626;SDS011;67372;49.404;11.034;2023-10-13T09:48:09;8.65;;;3.58;;
75626;SDS011;67372;49.404;11.034;2023-10-13T09:50:37;7.00;;;3.85;;
75626;SDS011;67372;49.404;11.034;2023-10-13T09:53:05;6.85;;;3.63;;
75626;SDS011;67372;49.404;11.034;2023-10-13T09:55:33;6.03;;;3.80;;
75626;SDS011;67372;49.404;11.034;2023-10-13T09:58:08;9.02;;;3.67;;
75626;SDS011;67372;49.404;11.034;2023-10-13T10:00:45;6.75;;;3.20;;
75626;SDS011;67372;49.404;11.034;2023-10-13T10:03:15;7.03;;;3.30;;
75626;SDS011;67372;49.404;11.034;2023-10-13T10:05:42;6.88;;;3.65;;
75626;SDS011;67372;49.404;11.034;2023-10-13T10:08:09;8.23;;;4.22;;
75626;SDS011;67372;49.404;11.034;2023-10-13T10:10:51;8.18;;;3.47;;
75626;SDS011;67372;49.404;11.034;2023-10-13T10:13:32;9.02;;;4.10;;
75626;SDS011;67372;49.404;11.034;2023-10-13T10:16:10;7.45;;;3.65;;
75626;SDS011;67372;49.404;11.034;2023-10-13T10:18:38;5.30;;;3.20;;
75626;SDS011;67372;49.404;11.034;2023-10-13T10:21:04;6.82;;;3.65;;
75626;SDS011;67372;49.404;11.034;2023-10-13T10:23:31;5.97;;;3.38;;
75626;SDS011;67372;49.404;11.034;2023-10-13T10:25:57;5.65;;;3.78;;
75626;SDS011;67372;49.404;11.034;2023-10-13T10:28:24;7.55;;;3.70;;
75626;SDS011;67372;49.404;11.034;2023-10-13T10:31:05;9.73;;;3.55;;
75626;SDS011;67372;49.404;11.034;2023-10-13T10:33:32;7.07;;;4.07;;
75626;SDS011;67372;49.404;11.034;2023-10-13T10:35:59;5.72;;;3.35;;
75626;SDS011;67372;49.404;11.034;2023-10-13T10:38:26;6.90;;;3.30;;
75626;SDS011;67372;49.404;11.034;2023-10-13T10:41:06;5.43;;;3.30;;
75626;SDS011;67372;49.404;11.034;2023-10-13T10:43:36;6.18;;;3.22;;
75626;SDS011;67372;49.404;11.034;2023-10-13T10:46:03;6.22;;;3.00;;
75626;SDS011;67372;49.404;11.034;2023-10-13T10:48:31;6.57;;;3.13;;
75626;SDS011;67372;49.404;11.034;2023-10-13T10:50:57;6.93;;;3.28;;
75626;SDS011;67372;49.404;11.034;2023-10-13T10:53:25;5.07;;;3.13;;
75626;SDS011;67372;49.404;11.034;2023-10-13T10:55:51;9.65;;;3.38;;
75626;SDS011;67372;49.404;11.034;2023-10-13T10:58:18;7.57;;;3.55;;
75626;SDS011;67372;49.404;11.034;2023-10-13T11:00:44;8.85;;;3.40;;
75626;SDS011;67372;49.404;11.034;2023-10-13T11:03:11;7.65;;;2.88;;
75626;SDS011;67372;49.404;11.034;2023-10-13T11:05:47;5.82;;;3.10;;
75626;SDS011;67372;49.404;11.034;2023-10-13T11:08:24;8.57;;;3.17;;
75626;SDS011;67372;49.404;11.034;2023-10-13T11:10:50;6.63;;;2.50;;
75626;SDS011;67372;49.404;11.034;2023-10-13T11:13:17;4.88;;;3.00;;
75626;SDS011;67372;49.404;11.034;2023-10-13T11:15:44;5.00;;;2.70;;
75626;SDS011;67372;49.404;11.034;2023-10-13T11:18:10;7.43;;;2.78;;
75626;SDS011;67372;49.404;11.034;2023-10-13T11:20:41;9.07;;;3.10;;
75626;SDS011;67372;49.404;11.034;2023-10-13T11:23:14;5.05;;;2.88;;
75626;SDS011;67372;49.404;11.034;2023-10-13T11:25:41;5.40;;;2.80;;
75626;SDS011;67372;49.404;11.034;2023-10-13T11:28:11;5.97;;;2.75;;
75626;SDS011;67372;49.404;11.034;2023-10-13T11:30:41;7.38;;;2.70;;
75626;SDS011;67372;49.404;11.034;2023-10-13T11:33:08;4.97;;;2.80;;
75626;SDS011;67372;49.404;11.034;2023-10-13T11:35:39;5.93;;;2.95;;
75626;SDS011;67372;49.404;11.034;2023-10-13T11:38:06;4.88;;;2.70;;
75626;SDS011;67372;49.404;11.034;2023-10-13T11:40:32;4.63;;;2.80;;
75626;SDS011;67372;49.404;11.034;2023-10-13T11:42:59;8.50;;;2.80;;
75626;SDS011;67372;49.404;11.034;2023-10-13T11:45:25;5.68;;;2.70;;
75626;SDS011;67372;49.404;11.034;2023-10-13T11:47:52;5.72;;;2.60;;
75626;SDS011;67372;49.404;11.034;2023-10-13T11:50:18;4.90;;;2.53;;
75626;SDS011;67372;49.404;11.034;2023-10-13T11:52:45;6.00;;;2.85;;
75626;SDS011;67372;49.404;11.034;2023-10-13T11:55:11;4.88;;;2.65;;
75626;SDS011;67372;49.404;11.034;2023-10-13T11:57:38;7.53;;;2.88;;
75626;SDS011;67372;49.404;11.034;2023-10-13T12:00:04;4.10;;;2.63;;
75626;SDS011;67372;49.404;11.034;2023-10-13T12:02:31;8.02;;;2.70;;
75626;SDS011;67372;49.404;11.034;2023-10-13T12:04:57;6.68;;;3.30;;
75626;SDS011;67372;49.404;11.034;2023-10-13T12:07:24;7.13;;;2.75;;
75626;SDS011;67372;49.404;11.034;2023-10-13T12:09:51;6.38;;;2.70;;
75626;SDS011;67372;49.404;11.034;2023-10-13T12:12:18;8.38;;;2.40;;
75626;SDS011;67372;49.404;11.034;2023-10-13T12:14:44;5.78;;;2.83;;
75626;SDS011;67372;49.404;11.034;2023-10-13T12:17:11;7.57;;;2.83;;
75626;SDS011;67372;49.404;11.034;2023-10-13T12:19:38;5.95;;;2.80;;
75626;SDS011;67372;49.404;11.034;2023-10-13T12:24:30;7.47;;;3.15;;
75626;SDS011;67372;49.404;11.034;2023-10-13T12:26:57;6.05;;;2.80;;
75626;SDS011;67372;49.404;11.034;2023-10-13T12:29:23;6.10;;;2.40;;
75626;SDS011;67372;49.404;11.034;2023-10-13T12:31:50;8.35;;;2.67;;
75626;SDS011;67372;49.404;11.034;2023-10-13T12:34:16;6.53;;;2.88;;
75626;SDS011;67372;49.404;11.034;2023-10-13T12:36:43;7.57;;;3.00;;
75626;SDS011;67372;49.404;11.034;2023-10-13T12:39:09;4.95;;;2.90;;
75626;SDS011;67372;49.404;11.034;2023-10-13T12:41:35;7.20;;;3.15;;
75626;SDS011;67372;49.404;11.034;2023-10-13T12:44:02;4.15;;;2.45;;
75626;SDS011;67372;49.404;11.034;2023-10-13T12:46:29;9.30;;;2.90;;
75626;SDS011;67372;49.404;11.034;2023-10-13T12:48:56;8.35;;;2.80;;
75626;SDS011;67372;49.404;11.034;2023-10-13T12:51:22;7.80;;;2.78;;
75626;SDS011;67372;49.404;11.034;2023-10-13T12:53:49;8.25;;;2.75;;
75626;SDS011;67372;49.404;11.034;2023-10-13T12:56:18;5.03;;;2.92;;
75626;SDS011;67372;49.404;11.034;2023-10-13T12:58:45;5.35;;;2.50;;
75626;SDS011;67372;49.404;11.034;2023-10-13T13:01:12;6.05;;;2.70;;
75626;SDS011;67372;49.404;11.034;2023-10-13T13:03:38;6.00;;;2.50;;
75626;SDS011;67372;49.404;11.034;2023-10-13T13:06:05;5.43;;;2.53;;
75626;SDS011;67372;49.404;11.034;2023-10-13T13:08:31;6.10;;;2.42;;
75626;SDS011;67372;49.404;11.034;2023-10-13T13:10:58;5.32;;;2.40;;
75626;SDS011;67372;49.404;11.034;2023-10-13T13:13:25;4.30;;;2.65;;
75626;SDS011;67372;49.404;11.034;2023-10-13T13:15:51;5.55;;;2.47;;
75626;SDS011;67372;49.404;11.034;2023-10-13T13:18:17;6.13;;;2.50;;
75626;SDS011;67372;49.404;11.034;2023-10-13T13:20:44;5.35;;;2.70;;
75626;SDS011;67372;49.404;11.034;2023-10-13T13:23:11;6.60;;;2.55;;
75626;SDS011;67372;49.404;11.034;2023-10-13T13:25:37;6.63;;;2.60;;
75626;SDS011;67372;49.404;11.034;2023-10-13T13:28:04;5.78;;;2.30;;
75626;SDS011;67372;49.404;11.034;2023-10-13T13:30:30;7.28;;;2.85;;
75626;SDS011;67372;49.404;11.034;2023-10-13T13:32:56;4.07;;;2.40;;
75626;SDS011;67372;49.404;11.034;2023-10-13T13:35:23;6.10;;;2.33;;
75626;SDS011;67372;49.404;11.034;2023-10-13T13:37:49;4.68;;;2.72;;
75626;SDS011;67372;49.404;11.034;2023-10-13T13:40:16;4.55;;;2.38;;
75626;SDS011;67372;49.404;11.034;2023-10-13T13:42:43;5.80;;;2.17;;
75626;SDS011;67372;49.404;11.034;2023-10-13T13:47:40;4.93;;;2.30;;
75626;SDS011;67372;49.404;11.034;2023-10-13T13:50:07;7.10;;;2.78;;
75626;SDS011;67372;49.404;11.034;2023-10-13T13:55:00;7.40;;;2.60;;
75626;SDS011;67372;49.404;11.034;2023-10-13T13:57:27;6.20;;;2.80;;
75626;SDS011;67372;49.404;11.034;2023-10-13T13:59:53;6.80;;;2.90;;
75626;SDS011;67372;49.404;11.034;2023-10-13T14:02:20;4.03;;;2.28;;
75626;SDS011;67372;49.404;11.034;2023-10-13T14:04:47;4.72;;;2.42;;
75626;SDS011;67372;49.404;11.034;2023-10-13T14:07:13;6.18;;;2.80;;
75626;SDS011;67372;49.404;11.034;2023-10-13T14:09:40;6.68;;;2.55;;
75626;SDS011;67372;49.404;11.034;2023-10-13T14:12:06;7.22;;;2.50;;
75626;SDS011;67372;49.404;11.034;2023-10-13T14:14:33;7.40;;;2.63;;
75626;SDS011;67372;49.404;11.034;2023-10-13T14:17:00;6.80;;;2.60;;
75626;SDS011;67372;49.404;11.034;2023-10-13T14:19:27;7.80;;;3.22;;
75626;SDS011;67372;49.404;11.034;2023-10-13T14:21:54;6.20;;;2.67;;
75626;SDS011;67372;49.404;11.034;2023-10-13T14:24:22;5.95;;;2.33;;
75626;SDS011;67372;49.404;11.034;2023-10-13T14:26:49;5.78;;;2.10;;
75626;SDS011;67372;49.404;11.034;2023-10-13T14:29:16;7.00;;;3.28;;
75626;SDS011;67372;49.404;11.034;2023-10-13T14:31:42;5.35;;;2.08;;
75626;SDS011;67372;49.404;11.034;2023-10-13T14:34:08;6.65;;;2.80;;
75626;SDS011;67372;49.404;11.034;2023-10-13T14:36:35;7.28;;;2.20;;
75626;SDS011;67372;49.404;11.034;2023-10-13T14:39:02;8.07;;;2.40;;
75626;SDS011;67372;49.404;11.034;2023-10-13T14:41:30;3.35;;;2.22;;
75626;SDS011;67372;49.404;11.034;2023-10-13T14:43:57;4.68;;;2.53;;